Aérodrome :
LOGIN :

S'inscrire | Disclaimer

   EN    FR    IT 

 










Légende :    VFR   VFR Marginal   IFR   IFR Intensif   IFR Très Intensif
Visi : 
Plafond : 
>= 8 km
>= 3000ft
5 à 8 km
1000 à 3000 ft
1500m à 5 km
500 à 1000 ft
800 à 1500m
200 à 500 ft
< 800m
< 200 ft
Symboles :   Orages  Brouillard  Fortes neiges  Fortes précipitations  Vent > 20 kt
SIGMETs :   Divers  Orages  Givrage  Turbulence  Onde Orograph.  Cendres Volcan.







- Altitude de l'aérodrome : 370 ft


EBBE - Beauvechain AB

DERNIER METAR :
  • 162325Z AUTO 21005KT 9999 NCD 17/12 Q1021 BLU

METARs EXPIRÉS :
  • 162255Z AUTO 21007KT 9999 NCD 18/12 Q1021 BLU
  • 162225Z AUTO 21008KT 9999 NCD 18/12 Q1021 BLU
  • 162219Z 21008KT 9999 SCT250 18/12 Q1021 BLU FCST CANCEL
  • 162155Z 21007KT 9999 SCT250 18/12 Q1021 BLU BLU
  • 162125Z 21007KT 9999 SCT250 18/12 Q1021 BLU BLU
  • 162055Z 19007KT 9999 SCT250 19/12 Q1021 BLU BLU

TAF TAF EBBE
Valide du 16 à 19h jusqu'au 17 à 07h UTC


161541Z 1619/1707 22008KT 9999 SCT300
BECMG 1700/1702 4500 BR SCT020
PROB30
TEMPO 1703/1707 0500 FG SCT002 BKN004
Pas de NOTAMs connus pour ce terrain.



MET'MAP, la Météo Aéronautique d'un coup d'oeil ! - Copyright ORBIFLY Décembre 2007 - Disclaimer

ORBIFLY MET'MAP TEAM :

Programmation & Développement : Alexandra Zaïnal
Conception & Développement : Baudouin d'Aumeries
Co-Programmation & Développement : Marc-Olivier Méhu
Soutien technique & logistique : Manuel Goepfert

Contact : metmap@orbifly.com




SOURCES & CREDITS :

   NOAA